createdAt,value
2023-03-15T00:00:58.935Z,98553.90
2023-03-15T00:03:32.541Z,98556.79
2023-03-15T00:06:01.190Z,98562.26
2023-03-15T00:08:27.964Z,98566.02
2023-03-15T00:16:59.861Z,98583.48
2023-03-15T00:19:45.457Z,98585.86
2023-03-15T00:22:36.339Z,98592.80
2023-03-15T00:25:11.323Z,98593.69
2023-03-15T00:27:42.263Z,98595.15
2023-03-15T00:30:14.024Z,98606.30
2023-03-15T00:32:48.440Z,98607.85
2023-03-15T00:35:18.768Z,98606.70
2023-03-15T00:37:51.048Z,98604.46
2023-03-15T00:40:18.772Z,98631.02
2023-03-15T00:42:53.500Z,98666.62
2023-03-15T00:47:00.613Z,98701.55
2023-03-15T00:49:29.849Z,98710.80
2023-03-15T00:52:00.023Z,98739.19
2023-03-15T00:54:27.558Z,98749.67
2023-03-15T00:57:08.186Z,98776.55
2023-03-15T00:59:37.056Z,98785.98
2023-03-15T01:02:10.402Z,98799.55
2023-03-15T01:04:40.689Z,98810.09
2023-03-15T01:07:11.299Z,98834.31
2023-03-15T01:10:06.239Z,98852.39
2023-03-15T01:12:41.258Z,98859.38
2023-03-15T01:15:16.885Z,98864.41
2023-03-15T01:17:50.321Z,98886.68
2023-03-15T01:20:19.895Z,98898.83
2023-03-15T01:22:49.831Z,98909.04
2023-03-15T01:25:26.400Z,98923.08
2023-03-15T01:28:01.735Z,98933.92
2023-03-15T01:30:36.871Z,98948.28
2023-03-15T01:33:05.436Z,98950.61
2023-03-15T01:35:36.409Z,98947.02
2023-03-15T01:38:28.804Z,98974.62
2023-03-15T01:41:20.164Z,98978.34
2023-03-15T01:44:38.301Z,98995.80
2023-03-15T01:47:21.844Z,99016.57
2023-03-15T01:50:24.059Z,99020.05
2023-03-15T01:53:42.842Z,99014.69
2023-03-15T01:56:30.230Z,99023.06
2023-03-15T01:59:24.957Z,99031.79
2023-03-15T02:02:39.618Z,99049.19
2023-03-15T02:06:09.058Z,99071.29
2023-03-15T02:09:27.041Z,99083.64
2023-03-15T02:12:25.933Z,99098.41
2023-03-15T02:17:47.139Z,99122.44
2023-03-15T02:21:06.301Z,99132.52
2023-03-15T02:24:00.644Z,99140.33
2023-03-15T02:27:01.030Z,99154.60
2023-03-15T02:29:41.881Z,99158.09
2023-03-15T02:32:13.734Z,99162.43
2023-03-15T02:34:43.747Z,99174.95
2023-03-15T02:37:24.017Z,99187.48
2023-03-15T02:40:01.913Z,99186.62
2023-03-15T02:42:38.133Z,99199.65
2023-03-15T02:45:42.071Z,99207.29
2023-03-15T02:48:18.933Z,99215.98
2023-03-15T02:50:50.535Z,99221.88
2023-03-15T02:53:31.351Z,99231.63
2023-03-15T02:56:06.620Z,99241.54
2023-03-15T02:59:37.433Z,99244.84
2023-03-15T03:03:43.698Z,99247.79
2023-03-15T03:07:47.098Z,99252.37
2023-03-15T03:11:25.669Z,99278.29
2023-03-15T03:14:36.903Z,99285.77
2023-03-15T03:18:26.163Z,99301.46
2023-03-15T03:22:17.197Z,99300.45
2023-03-15T03:25:55.901Z,99299.38
2023-03-15T03:28:58.605Z,99310.67
2023-03-15T03:31:34.698Z,99320.62
2023-03-15T03:34:17.599Z,99325.50
2023-03-15T03:47:05.990Z,99343.61
2023-03-15T04:01:53.898Z,99362.59
2023-03-15T04:05:02.148Z,99371.30
2023-03-15T04:08:02.226Z,99385.58
2023-03-15T04:29:10.935Z,99428.14
2023-03-15T04:32:15.877Z,99434.44
2023-03-15T04:34:52.577Z,99436.72
2023-03-15T04:37:42.996Z,99440.52
2023-03-15T04:45:23.743Z,99457.39
2023-03-15T04:52:25.562Z,99466.25
2023-03-15T04:56:23.519Z,99464.49
2023-03-15T04:59:38.238Z,99468.65
2023-03-15T05:02:41.973Z,99474.40
2023-03-15T05:09:42.817Z,99477.80
2023-03-15T05:13:03.197Z,99492.43
2023-03-15T05:16:26.654Z,99492.77
2023-03-15T05:20:11.293Z,99501.64
2023-03-15T05:24:11.436Z,99504.37
2023-03-15T05:28:08.263Z,99515.16
2023-03-15T05:31:32.791Z,99519.37
2023-03-15T05:34:47.252Z,99528.80
2023-03-15T05:38:21.775Z,99532.60
2023-03-15T05:42:25.591Z,99535.74
2023-03-15T05:45:29.165Z,99534.17
2023-03-15T05:48:33.645Z,99542.77
2023-03-15T05:51:13.646Z,99547.88
2023-03-15T05:54:00.728Z,99554.00
2023-03-15T05:56:44.615Z,99565.16
2023-03-15T05:59:35.428Z,99577.73
2023-03-15T06:02:19.720Z,99590.46
2023-03-15T06:04:53.070Z,99596.05
2023-03-15T06:07:22.556Z,99597.50
2023-03-15T06:09:51.466Z,99592.80
2023-03-15T06:12:18.688Z,99603.55
2023-03-15T06:14:47.929Z,99604.05
2023-03-15T06:17:15.587Z,99600.76
2023-03-15T06:19:44.255Z,99597.86
2023-03-15T06:22:13.732Z,99600.34
2023-03-15T06:24:49.605Z,99605.90
2023-03-15T06:27:16.456Z,99613.20
2023-03-15T06:29:43.566Z,99622.98
2023-03-15T06:32:12.141Z,99629.96
2023-03-15T06:34:40.478Z,99635.14
2023-03-15T06:37:10.571Z,99640.85
2023-03-15T06:39:38.009Z,99643.47
2023-03-15T06:42:07.403Z,99655.70
2023-03-15T06:44:38.521Z,99670.84
2023-03-15T06:47:10.355Z,99682.70
2023-03-15T06:49:39.190Z,99683.73
2023-03-15T06:52:09.644Z,99696.42
2023-03-15T06:54:38.243Z,99711.23
2023-03-15T06:57:06.139Z,99711.25
2023-03-15T06:59:34.595Z,99702.91
2023-03-15T07:02:01.933Z,99710.63
2023-03-15T07:04:29.716Z,99718.85
2023-03-15T07:06:56.746Z,99730.73
2023-03-15T07:09:24.238Z,99734.02
2023-03-15T07:11:52.810Z,99727.03
2023-03-15T07:14:23.035Z,99729.77
2023-03-15T07:16:50.751Z,99736.27
2023-03-15T07:19:17.661Z,99738.63
2023-03-15T07:21:48.360Z,99742.48
2023-03-15T07:24:16.952Z,99741.28
2023-03-15T07:26:44.353Z,99739.59
2023-03-15T07:29:11.755Z,99743.13
2023-03-15T07:31:38.695Z,99743.48
2023-03-15T07:34:06.190Z,99740.70
2023-03-15T07:36:33.064Z,99744.10
2023-03-15T07:39:00.040Z,99743.91
2023-03-15T07:41:26.947Z,99745.11
2023-03-15T07:43:58.643Z,99748.41
2023-03-15T07:46:28.398Z,99746.59
2023-03-15T07:48:55.446Z,99746.36
2023-03-15T07:51:23.691Z,99747.56
2023-03-15T07:53:52.270Z,99746.80
2023-03-15T07:56:19.841Z,99751.01
2023-03-15T07:58:46.973Z,99760.27
2023-03-15T08:01:14.436Z,99762.99
2023-03-15T08:03:41.830Z,99775.05
2023-03-15T08:06:09.755Z,99779.15
2023-03-15T08:08:36.836Z,99788.98
2023-03-15T08:11:05.499Z,99799.17
2023-03-15T08:13:34.056Z,99801.08
2023-03-15T08:16:03.086Z,99807.19
2023-03-15T08:18:33.323Z,99807.23
2023-03-15T08:21:00.179Z,99813.27
2023-03-15T08:23:29.538Z,99820.83
2023-03-15T08:25:58.025Z,99821.92
2023-03-15T08:28:25.777Z,99826.89
2023-03-15T08:30:52.737Z,99830.05
2023-03-15T08:33:19.674Z,99840.73
2023-03-15T08:35:46.597Z,99843.88
2023-03-15T08:38:13.738Z,99845.61
2023-03-15T08:40:41.321Z,99852.27
2023-03-15T08:43:08.771Z,99854.09
2023-03-15T08:45:51.152Z,99855.96
2023-03-15T08:48:23.327Z,99856.06
2023-03-15T08:50:51.124Z,99858.05
2023-03-15T08:53:20.676Z,99863.23
2023-03-15T08:55:49.888Z,99868.20
2023-03-15T08:58:17.388Z,99870.88
2023-03-15T09:00:45.373Z,99870.35
2023-03-15T09:03:13.004Z,99868.62
2023-03-15T09:05:40.470Z,99877.16
2023-03-15T09:08:07.909Z,99881.22
2023-03-15T09:10:34.768Z,99888.90
2023-03-15T09:13:02.257Z,99887.33
2023-03-15T09:15:29.689Z,99896.77
2023-03-15T09:17:56.631Z,99894.84
2023-03-15T09:20:28.336Z,99892.91
2023-03-15T09:22:57.997Z,99892.60
2023-03-15T09:25:26.054Z,99900.34
2023-03-15T09:27:55.001Z,99905.22
2023-03-15T09:30:23.009Z,99906.11
2023-03-15T09:32:51.623Z,99907.49
2023-03-15T09:35:20.229Z,99914.95
2023-03-15T09:37:49.320Z,99910.75
2023-03-15T09:40:33.912Z,99912.67
2023-03-15T09:43:06.679Z,99913.77
2023-03-15T09:46:20.904Z,99913.97
2023-03-15T09:48:57.143Z,99911.88
2023-03-15T09:51:42.799Z,99909.25
2023-03-15T09:54:35.262Z,99906.46
2023-03-15T09:57:07.082Z,99910.13
2023-03-15T09:59:41.672Z,99907.74
2023-03-15T10:02:29.212Z,99906.20
2023-03-15T10:05:06.332Z,99907.95
2023-03-15T10:07:34.442Z,99906.38
2023-03-15T10:10:05.153Z,99909.88
2023-03-15T10:12:43.166Z,99903.73
2023-03-15T10:15:36.744Z,99895.81
2023-03-15T10:18:54.632Z,99900.15
2023-03-15T10:22:01.665Z,99902.59
2023-03-15T10:24:51.316Z,99896.64
2023-03-15T10:27:36.553Z,99907.23
2023-03-15T10:30:17.496Z,99914.48
2023-03-15T10:32:50.185Z,99905.31
2023-03-15T10:35:19.045Z,99910.11
2023-03-15T10:37:46.673Z,99908.93
2023-03-15T10:40:16.643Z,99901.21
2023-03-15T10:42:45.782Z,99894.94
2023-03-15T10:45:24.756Z,99898.80
2023-03-15T10:48:00.236Z,99901.84
2023-03-15T10:50:34.601Z,99909.94
2023-03-15T10:53:09.024Z,99909.81
2023-03-15T10:55:42.676Z,99911.77
2023-03-15T10:58:18.573Z,99910.16
2023-03-15T11:00:52.777Z,99908.95
2023-03-15T11:03:24.044Z,99908.61
2023-03-15T11:05:54.250Z,99910.20
2023-03-15T11:08:55.265Z,99911.08
2023-03-15T11:11:22.805Z,99906.50
2023-03-15T11:14:01.959Z,99906.64
2023-03-15T11:16:35.036Z,99910.80
2023-03-15T11:19:06.490Z,99907.96
2023-03-15T11:21:37.006Z,99907.05
2023-03-15T11:24:08.664Z,99911.73
2023-03-15T11:26:39.609Z,99908.61
2023-03-15T11:29:18.894Z,99906.52
2023-03-15T11:31:46.523Z,99910.43
2023-03-15T11:34:36.000Z,99912.73
2023-03-15T11:37:13.248Z,99913.45
2023-03-15T11:40:33.257Z,99909.40
2023-03-15T11:43:09.169Z,99912.96
2023-03-15T11:45:46.131Z,99924.86
2023-03-15T11:48:42.946Z,99916.30
2023-03-15T11:51:12.705Z,99907.01
2023-03-15T11:53:46.483Z,99908.42
2023-03-15T11:56:25.691Z,99915.58
2023-03-15T11:59:11.517Z,99927.02
2023-03-15T12:01:46.265Z,99924.52
2023-03-15T12:04:24.949Z,99929.61
2023-03-15T12:06:54.791Z,99929.77
2023-03-15T12:09:33.499Z,99932.04
2023-03-15T12:12:06.588Z,99930.98
2023-03-15T12:14:37.555Z,99934.94
2023-03-15T12:17:29.936Z,99933.71
2023-03-15T12:20:09.515Z,99936.84
2023-03-15T12:22:38.168Z,99936.52
2023-03-15T12:25:37.193Z,99939.82
2023-03-15T12:28:21.066Z,99940.83
2023-03-15T12:30:56.781Z,99941.56
2023-03-15T12:33:25.681Z,99944.74
2023-03-15T12:36:01.697Z,99949.14
2023-03-15T12:38:38.348Z,99952.80
2023-03-15T12:41:29.155Z,99961.09
2023-03-15T12:44:22.434Z,99963.23
2023-03-15T12:46:49.236Z,99966.04
2023-03-15T12:49:25.176Z,99971.86
2023-03-15T12:52:15.044Z,99976.62
2023-03-15T12:54:54.223Z,99980.67
2023-03-15T12:57:30.292Z,99986.45
2023-03-15T13:00:27.644Z,99991.37
2023-03-15T13:03:28.315Z,99987.88
2023-03-15T13:06:19.522Z,99991.91
2023-03-15T13:09:10.443Z,99996.13
2023-03-15T13:11:49.889Z,99996.30
2023-03-15T13:14:28.854Z,100001.91
2023-03-15T13:17:23.645Z,100010.84
2023-03-15T13:20:16.569Z,100010.84
2023-03-15T13:22:56.452Z,100018.88
2023-03-15T13:25:41.693Z,100021.87
2023-03-15T13:28:28.346Z,100025.17
2023-03-15T13:30:56.164Z,100026.77
2023-03-15T13:33:28.274Z,100022.56
2023-03-15T13:36:06.119Z,100030.45
2023-03-15T13:38:40.328Z,100036.23
2023-03-15T13:41:16.248Z,100042.02
2023-03-15T13:43:45.370Z,100040.09
2023-03-15T13:46:12.311Z,100041.13
2023-03-15T13:48:46.282Z,100043.23
2023-03-15T13:51:35.982Z,100036.04
2023-03-15T13:54:11.933Z,100037.77
2023-03-15T13:57:12.230Z,100036.00
2023-03-15T13:59:45.980Z,100033.52
2023-03-15T14:02:35.989Z,100041.37
2023-03-15T14:05:07.923Z,100042.42
2023-03-15T14:07:46.486Z,100047.53
2023-03-15T14:10:36.255Z,100049.33
2023-03-15T14:13:54.283Z,100049.85
2023-03-15T14:16:53.297Z,100045.83
2023-03-15T14:19:29.905Z,100048.43
2023-03-15T14:22:02.735Z,100054.05
2023-03-15T14:24:32.792Z,100053.20
2023-03-15T14:27:02.670Z,100064.41
2023-03-15T14:29:38.125Z,100057.23
2023-03-15T14:32:13.390Z,100065.30
2023-03-15T14:34:48.124Z,100069.81
2023-03-15T14:37:43.885Z,100065.77
2023-03-15T14:40:21.314Z,100070.31
2023-03-15T14:42:50.178Z,100072.06
2023-03-15T14:45:19.540Z,100069.62
2023-03-15T14:47:57.184Z,100075.91
2023-03-15T14:50:30.577Z,100081.52
2023-03-15T14:53:05.129Z,100078.70
2023-03-15T14:55:35.393Z,100082.73
2023-03-15T14:58:05.515Z,100083.25
2023-03-15T15:00:33.619Z,100087.81
2023-03-15T15:03:01.825Z,100091.52
2023-03-15T15:05:35.299Z,100087.67
2023-03-15T15:08:10.865Z,100086.43
2023-03-15T15:10:37.857Z,100085.19
2023-03-15T15:13:07.440Z,100097.44
2023-03-15T15:15:53.458Z,100098.48
2023-03-15T15:18:30.399Z,100098.83
2023-03-15T15:21:00.502Z,100098.99
2023-03-15T15:23:29.039Z,100097.90
2023-03-15T15:25:59.926Z,100103.31
2023-03-15T15:28:35.170Z,100108.52
2023-03-15T15:31:03.468Z,100114.79
2023-03-15T15:33:30.641Z,100115.42
2023-03-15T15:35:58.929Z,100114.98
2023-03-15T15:38:33.364Z,100122.41
2023-03-15T15:41:00.746Z,100123.23
2023-03-15T15:43:27.819Z,100134.60
2023-03-15T15:45:57.022Z,100137.04
2023-03-15T15:48:24.991Z,100142.95
2023-03-15T15:50:52.630Z,100144.35
2023-03-15T15:53:20.685Z,100148.52
2023-03-15T15:55:48.344Z,100149.04
2023-03-15T15:58:17.741Z,100152.86
2023-03-15T16:00:45.864Z,100156.35
2023-03-15T16:03:17.626Z,100164.30
2023-03-15T16:05:48.373Z,100161.84
2023-03-15T16:08:25.091Z,100163.75
2023-03-15T16:10:52.227Z,100164.20
2023-03-15T16:13:21.051Z,100168.68
2023-03-15T16:15:48.120Z,100168.67
2023-03-15T16:18:15.730Z,100169.72
2023-03-15T16:20:43.541Z,100170.21
2023-03-15T16:23:21.297Z,100171.77
2023-03-15T16:25:51.733Z,100178.21
2023-03-15T16:28:23.502Z,100181.48
2023-03-15T16:30:51.590Z,100182.66
2023-03-15T16:33:21.462Z,100185.02
2023-03-15T16:35:53.593Z,100189.17
2023-03-15T16:38:29.206Z,100193.45
2023-03-15T16:40:56.638Z,100194.27
2023-03-15T16:43:23.807Z,100196.86
2023-03-15T16:45:53.785Z,100200.30
2023-03-15T16:48:21.060Z,100198.36
2023-03-15T16:50:48.989Z,100207.54
2023-03-15T16:53:16.689Z,100210.23
2023-03-15T16:56:03.657Z,100213.15
2023-03-15T16:59:03.436Z,100216.92
2023-03-15T17:03:23.575Z,100224.13
2023-03-15T17:07:15.604Z,100226.36
2023-03-15T17:10:59.320Z,100230.51
2023-03-15T17:14:45.829Z,100238.41
2023-03-15T17:19:01.842Z,100245.00
2023-03-15T17:23:13.930Z,100245.36
2023-03-15T17:27:07.729Z,100242.39
2023-03-15T17:29:55.927Z,100246.73
2023-03-15T18:40:34.805Z,100309.06
2023-03-15T19:34:33.828Z,100343.78
2023-03-15T21:04:15.469Z,100390.33
